Time;durP1;ratioP1;P1;durP2;ratioP2;P2;SDS_P1;SDS_P2;PMS_P1;PMS_P2;Temp;Humidity;BMP_temperature;BMP_pressure;BME280_temperature;BME280_humidity;BME280_pressure;Samples;Min_cycle;Max_cycle;Signal;HPM_P1;HPM_P2
2021/08/29 00:01:59;;;;;;;0.80;0.40;;;24.50;50.00;;;;;;4915330;29;20445;-68
2021/08/29 00:04:25;;;;;;;0.70;0.40;;;24.50;50.00;;;;;;4913785;29;20482;-68
2021/08/29 00:06:50;;;;;;;0.80;0.30;;;24.50;49.90;;;;;;4915231;29;20397;-68
2021/08/29 00:09:17;;;;;;;0.77;0.30;;;24.50;50.00;;;;;;4915423;29;21053;-69
2021/08/29 00:11:43;;;;;;;0.88;0.30;;;24.50;49.90;;;;;;4914043;29;20398;-69
2021/08/29 00:14:10;;;;;;;0.65;0.30;;;24.50;49.90;;;;;;4915281;29;20751;-68
2021/08/29 00:16:36;;;;;;;0.85;0.40;;;24.50;50.00;;;;;;4913747;29;20425;-69
2021/08/29 00:19:03;;;;;;;0.55;0.28;;;24.50;50.00;;;;;;4914900;29;20398;-68
2021/08/29 00:21:28;;;;;;;0.60;0.30;;;24.50;50.00;;;;;;4914021;29;20437;-67
2021/08/29 00:23:54;;;;;;;0.80;0.30;;;24.50;50.00;;;;;;4914721;29;20473;-68
2021/08/29 00:26:20;;;;;;;0.65;0.30;;;24.40;49.90;;;;;;4915040;29;20413;-69
2021/08/29 00:28:46;;;;;;;0.37;0.20;;;24.40;50.50;;;;;;4915075;29;20425;-69
2021/08/29 00:31:11;;;;;;;0.60;0.20;;;24.40;49.90;;;;;;4914800;29;20397;-68
2021/08/29 00:33:37;;;;;;;0.57;0.20;;;24.40;49.90;;;;;;4914584;29;20397;-67
2021/08/29 00:36:03;;;;;;;0.80;0.30;;;24.40;49.90;;;;;;4916103;29;20400;-68
2021/08/29 00:38:29;;;;;;;0.68;0.30;;;24.50;49.90;;;;;;4916089;29;20393;-68
2021/08/29 00:40:54;;;;;;;0.40;0.30;;;24.40;49.80;;;;;;4915901;29;20405;-68
2021/08/29 00:43:23;;;;;;;0.60;0.30;;;24.40;49.90;;;;;;4916010;29;20397;-68
2021/08/29 00:45:51;;;;;;;0.63;0.25;;;24.40;49.90;;;;;;4915352;29;20440;-68
2021/08/29 00:48:17;;;;;;;0.70;0.30;;;24.40;49.90;;;;;;4915881;29;20784;-68
2021/08/29 00:50:46;;;;;;;0.70;0.30;;;24.40;49.80;;;;;;4915348;29;20897;-69
2021/08/29 00:53:21;;;;;;;0.50;0.20;;;24.40;49.80;;;;;;4915442;29;20574;-68
2021/08/29 00:55:48;;;;;;;0.60;0.30;;;24.40;49.80;;;;;;4915382;29;20495;-68
2021/08/29 00:58:14;;;;;;;0.75;0.30;;;24.40;49.80;;;;;;4915835;29;20397;-68
2021/08/29 01:00:43;;;;;;;0.50;0.20;;;24.40;49.80;;;;;;4915661;29;20408;-68
2021/08/29 01:03:35;;;;;;;0.50;0.20;;;24.40;49.80;;;;;;4915682;29;20473;-68
2021/08/29 01:06:26;;;;;;;0.55;0.20;;;24.40;49.70;;;;;;4914118;29;20561;-68
2021/08/29 01:09:07;;;;;;;0.30;0.20;;;24.40;49.70;;;;;;4915545;29;20397;-68
2021/08/29 01:11:36;;;;;;;0.50;0.30;;;24.40;49.70;;;;;;4915415;29;20408;-67
2021/08/29 01:14:05;;;;;;;0.50;0.30;;;24.40;49.80;;;;;;4915580;29;20397;-68
2021/08/29 01:16:35;;;;;;;0.40;0.22;;;24.30;49.80;;;;;;4915380;29;20421;-68
2021/08/29 01:19:09;;;;;;;0.38;0.20;;;24.30;49.70;;;;;;4915638;29;20770;-68
2021/08/29 01:21:36;;;;;;;0.40;0.20;;;24.30;49.70;;;;;;4913472;29;20408;-68
2021/08/29 01:24:12;;;;;;;0.50;0.30;;;24.30;49.70;;;;;;4915201;29;20469;-68
2021/08/29 01:26:58;;;;;;;0.55;0.30;;;24.30;49.70;;;;;;4915417;29;20512;-68
2021/08/29 01:29:27;;;;;;;0.80;0.30;;;24.30;49.70;;;;;;4915450;29;20393;-68
2021/08/29 01:31:52;;;;;;;0.68;0.38;;;24.30;49.70;;;;;;4914858;29;20434;-68
2021/08/29 01:34:19;;;;;;;0.50;0.20;;;24.30;49.70;;;;;;4915520;29;20400;-68
2021/08/29 01:36:48;;;;;;;0.40;0.20;;;24.30;49.60;;;;;;4915361;29;20405;-68
2021/08/29 01:39:15;;;;;;;0.43;0.20;;;24.30;49.70;;;;;;4915387;29;20404;-68
2021/08/29 01:41:45;;;;;;;0.60;0.20;;;24.30;49.70;;;;;;4914667;29;20945;-68
2021/08/29 01:44:11;;;;;;;0.73;0.30;;;24.30;49.70;;;;;;4914979;29;20421;-69
2021/08/29 01:46:40;;;;;;;0.65;0.20;;;24.30;49.70;;;;;;4924350;29;20458;-68
2021/08/29 01:49:08;;;;;;;0.22;0.10;;;24.30;49.60;;;;;;4935723;29;20478;-68
2021/08/29 01:51:37;;;;;;;2.03;0.30;;;24.30;49.80;;;;;;4943458;29;20408;-67
2021/08/29 01:54:03;;;;;;;1.70;0.20;;;24.30;49.90;;;;;;4942395;28;20478;-68
2021/08/29 01:56:29;;;;;;;2.50;0.30;;;24.40;50.00;;;;;;4949448;29;20803;-68
2021/08/29 01:58:55;;;;;;;1.57;0.30;;;24.40;49.80;;;;;;4937124;29;20796;-68
2021/08/29 02:01:20;;;;;;;1.60;0.20;;;24.40;49.60;;;;;;4953208;28;20449;-68
2021/08/29 02:03:46;;;;;;;1.93;0.37;;;24.30;49.50;;;;;;4941367;29;20404;-68
2021/08/29 02:06:12;;;;;;;0.47;0.20;;;24.30;49.60;;;;;;4933383;29;20462;-69
2021/08/29 02:08:54;;;;;;;1.67;0.30;;;24.30;49.70;;;;;;4933666;29;20900;-68
2021/08/29 02:11:21;;;;;;;0.60;0.30;;;24.30;49.70;;;;;;4934017;29;20788;-68
2021/08/29 02:13:49;;;;;;;0.50;0.30;;;24.30;49.70;;;;;;4933494;29;20931;-68
2021/08/29 02:16:18;;;;;;;0.57;0.28;;;24.30;49.60;;;;;;4933855;29;20518;-69
2021/08/29 02:18:47;;;;;;;0.55;0.20;;;24.20;49.60;;;;;;4933995;29;20399;-68
2021/08/29 02:21:14;;;;;;;0.68;0.15;;;24.20;49.60;;;;;;4933672;29;20392;-68
2021/08/29 02:23:40;;;;;;;1.20;0.30;;;24.20;49.60;;;;;;4933030;29;20856;-67
2021/08/29 02:26:06;;;;;;;1.00;0.30;;;24.20;49.70;;;;;;4933661;29;20962;-68
2021/08/29 02:28:33;;;;;;;1.23;0.20;;;24.20;49.60;;;;;;4933965;29;20400;-68
2021/08/29 02:31:00;;;;;;;0.75;0.20;;;24.20;49.60;;;;;;4933889;29;20399;-67
2021/08/29 02:33:26;;;;;;;1.10;0.43;;;24.20;49.60;;;;;;4934295;29;20407;-68
2021/08/29 02:35:53;;;;;;;1.27;0.30;;;24.20;49.60;;;;;;4936653;29;20482;-68
2021/08/29 02:38:20;;;;;;;0.60;0.10;;;24.20;49.70;;;;;;4937032;29;20399;-68
2021/08/29 02:40:48;;;;;;;0.60;0.30;;;24.20;49.80;;;;;;4937205;29;20423;-68
2021/08/29 02:43:15;;;;;;;0.80;0.20;;;24.20;49.70;;;;;;4937267;29;20431;-68
2021/08/29 02:45:43;;;;;;;0.60;0.20;;;24.20;49.70;;;;;;4936538;29;20921;-67
2021/08/29 02:48:09;;;;;;;1.20;0.30;;;24.10;49.70;;;;;;4937092;29;20759;-68
2021/08/29 02:50:36;;;;;;;0.40;0.20;;;24.20;49.70;;;;;;4937083;29;20395;-68
2021/08/29 02:53:02;;;;;;;0.45;0.20;;;24.20;49.70;;;;;;4937044;29;20817;-68
2021/08/29 02:55:29;;;;;;;0.28;0.13;;;24.20;49.70;;;;;;4936962;29;20485;-68
2021/08/29 02:58:01;;;;;;;0.60;0.20;;;24.20;49.70;;;;;;4936443;29;20407;-68
2021/08/29 03:00:27;;;;;;;0.30;0.10;;;24.20;49.80;;;;;;4936752;29;20406;-68
2021/08/29 03:02:54;;;;;;;0.40;0.22;;;24.10;49.70;;;;;;4936746;29;20383;-68
2021/08/29 03:05:20;;;;;;;1.60;0.20;;;24.10;49.70;;;;;;4936729;29;20903;-69
2021/08/29 03:07:46;;;;;;;0.93;0.20;;;24.10;49.70;;;;;;4936154;29;20392;-68
2021/08/29 03:10:12;;;;;;;0.35;0.20;;;24.10;49.60;;;;;;4936681;29;20930;-69
2021/08/29 03:12:39;;;;;;;0.40;0.20;;;24.10;49.70;;;;;;4936469;29;20465;-68
2021/08/29 03:15:06;;;;;;;0.45;0.20;;;24.10;49.60;;;;;;4936391;29;20511;-68
2021/08/29 03:17:32;;;;;;;0.47;0.20;;;24.10;49.60;;;;;;4936581;29;20984;-68
2021/08/29 03:20:01;;;;;;;0.60;0.30;;;24.10;49.70;;;;;;4935589;29;20396;-67
2021/08/29 03:22:27;;;;;;;0.30;0.20;;;24.10;49.70;;;;;;4936199;29;20407;-68
2021/08/29 03:24:53;;;;;;;1.13;0.30;;;24.10;49.70;;;;;;4935702;29;20495;-69
2021/08/29 03:27:19;;;;;;;0.40;0.22;;;24.10;49.70;;;;;;4936019;29;20423;-68
2021/08/29 03:29:45;;;;;;;0.32;0.20;;;24.10;49.70;;;;;;4935393;29;20399;-69
2021/08/29 03:32:11;;;;;;;0.30;0.10;;;24.10;49.70;;;;;;4936176;29;20396;-69
2021/08/29 03:34:37;;;;;;;0.60;0.30;;;24.10;49.70;;;;;;4936258;29;20815;-68
2021/08/29 03:37:05;;;;;;;0.63;0.20;;;24.10;49.70;;;;;;4936093;29;20955;-68
2021/08/29 03:39:31;;;;;;;0.60;0.30;;;24.10;49.70;;;;;;4936060;29;20495;-68
2021/08/29 03:41:58;;;;;;;0.25;0.20;;;24.10;50.30;;;;;;4935387;29;20486;-69
2021/08/29 03:44:25;;;;;;;0.50;0.28;;;24.10;49.70;;;;;;4935681;29;20495;-67
2021/08/29 03:46:51;;;;;;;1.08;0.20;;;24.10;49.70;;;;;;4935940;29;20791;-68
2021/08/29 03:49:18;;;;;;;0.90;0.30;;;24.10;49.70;;;;;;4935991;29;20417;-68
2021/08/29 03:51:45;;;;;;;0.63;0.20;;;24.00;49.60;;;;;;4935632;29;20431;-67
2021/08/29 03:54:15;;;;;;;0.60;0.30;;;24.10;49.70;;;;;;4935931;29;20776;-68
2021/08/29 03:56:41;;;;;;;0.80;0.30;;;24.00;49.70;;;;;;4935782;29;20418;-68
2021/08/29 03:59:07;;;;;;;0.85;0.30;;;24.00;49.60;;;;;;4935790;29;20403;-68
2021/08/29 04:01:33;;;;;;;0.60;0.20;;;24.00;49.60;;;;;;4935563;29;20443;-68
2021/08/29 04:03:59;;;;;;;0.77;0.20;;;24.00;49.60;;;;;;4934920;29;20432;-68
2021/08/29 04:06:32;;;;;;;0.50;0.20;;;24.00;49.70;;;;;;4935635;29;20432;-67
2021/08/29 04:09:02;;;;;;;0.38;0.20;;;24.00;49.70;;;;;;4934278;29;20809;-68
2021/08/29 04:11:32;;;;;;;0.30;0.10;;;24.00;49.70;;;;;;4935670;29;20435;-68
2021/08/29 04:13:58;;;;;;;0.70;0.30;;;24.00;49.80;;;;;;4935045;29;20504;-69
2021/08/29 04:16:24;;;;;;;0.50;0.20;;;24.00;49.70;;;;;;4935362;29;20416;-68
2021/08/29 04:18:51;;;;;;;0.45;0.20;;;23.90;49.80;;;;;;4935207;29;20539;-68
2021/08/29 04:21:25;;;;;;;0.30;0.20;;;24.00;49.80;;;;;;4935453;29;20410;-68
2021/08/29 04:23:52;;;;;;;0.40;0.20;;;23.90;49.70;;;;;;4934652;29;20904;-67
2021/08/29 04:26:18;;;;;;;0.45;0.20;;;24.00;49.80;;;;;;4934691;29;20522;-68
2021/08/29 04:28:43;;;;;;;0.70;0.20;;;24.00;49.80;;;;;;4935250;29;20523;-68
2021/08/29 04:31:17;;;;;;;0.77;0.20;;;23.90;49.70;;;;;;4935234;29;20811;-68
2021/08/29 04:33:43;;;;;;;0.30;0.20;;;24.00;49.70;;;;;;4934961;29;20478;-67
2021/08/29 04:36:09;;;;;;;0.40;0.20;;;24.00;49.70;;;;;;4934909;29;20856;-68
2021/08/29 04:38:35;;;;;;;0.50;0.20;;;23.90;49.60;;;;;;4935159;29;20403;-68
2021/08/29 04:41:01;;;;;;;0.32;0.20;;;23.90;49.80;;;;;;4934816;29;20395;-68
2021/08/29 04:43:27;;;;;;;0.73;0.20;;;23.90;49.60;;;;;;4935001;29;20503;-68
2021/08/29 04:45:53;;;;;;;0.50;0.20;;;23.90;49.80;;;;;;4934401;29;20423;-68
2021/08/29 04:48:18;;;;;;;0.30;0.20;;;23.90;49.60;;;;;;4935052;29;20396;-68
2021/08/29 04:50:44;;;;;;;0.32;0.20;;;23.90;49.60;;;;;;4934788;29;20759;-69
2021/08/29 04:53:10;;;;;;;0.30;0.20;;;23.90;49.60;;;;;;4935059;29;20387;-68
2021/08/29 04:55:35;;;;;;;0.30;0.17;;;23.90;49.60;;;;;;4934914;29;20490;-68
2021/08/29 04:58:01;;;;;;;0.30;0.20;;;23.90;49.60;;;;;;4933836;29;20391;-68
2021/08/29 05:00:27;;;;;;;0.30;0.10;;;23.90;49.60;;;;;;4934478;29;20443;-68
2021/08/29 05:02:52;;;;;;;0.47;0.20;;;23.90;49.60;;;;;;4934657;29;20446;-68
2021/08/29 05:05:18;;;;;;;0.50;0.20;;;23.90;49.60;;;;;;4934552;29;20441;-68
2021/08/29 05:07:44;;;;;;;0.45;0.30;;;23.90;49.60;;;;;;4934357;29;20395;-68
2021/08/29 05:10:10;;;;;;;0.52;0.30;;;23.90;49.50;;;;;;4934425;29;20812;-68
2021/08/29 05:12:35;;;;;;;0.38;0.20;;;23.90;49.50;;;;;;4934650;29;20399;-68
2021/08/29 05:15:01;;;;;;;0.30;0.17;;;23.90;49.50;;;;;;4934317;29;20406;-69
2021/08/29 05:17:27;;;;;;;0.40;0.20;;;23.90;49.50;;;;;;4934647;29;20410;-68
2021/08/29 05:19:53;;;;;;;0.40;0.20;;;23.90;49.50;;;;;;4934049;29;20396;-68
2021/08/29 05:22:18;;;;;;;0.32;0.20;;;23.90;49.40;;;;;;4934473;29;20450;-68
2021/08/29 05:24:44;;;;;;;0.37;0.20;;;23.90;49.40;;;;;;4934356;29;20433;-68
2021/08/29 05:27:09;;;;;;;0.30;0.10;;;23.90;49.60;;;;;;4934134;29;20887;-68
2021/08/29 05:29:35;;;;;;;0.60;0.20;;;23.80;49.50;;;;;;4934434;29;20403;-67
2021/08/29 05:32:01;;;;;;;0.60;0.10;;;23.80;49.40;;;;;;4933897;29;20392;-68
2021/08/29 05:34:26;;;;;;;0.50;0.10;;;23.80;49.50;;;;;;4934380;29;20494;-68
2021/08/29 05:36:52;;;;;;;0.17;0.10;;;23.80;49.40;;;;;;4934383;29;20403;-68
2021/08/29 05:39:18;;;;;;;0.35;0.20;;;23.80;49.60;;;;;;4934329;29;20899;-68
2021/08/29 05:41:44;;;;;;;0.20;0.10;;;23.80;49.50;;;;;;4934040;29;20410;-66
2021/08/29 05:44:09;;;;;;;0.30;0.15;;;23.80;49.40;;;;;;4933983;29;20898;-68
2021/08/29 05:46:35;;;;;;;0.40;0.20;;;23.80;49.50;;;;;;4934342;29;20416;-68
2021/08/29 05:49:01;;;;;;;0.50;0.20;;;23.80;49.50;;;;;;4934309;29;20403;-68
2021/08/29 05:51:26;;;;;;;0.28;0.20;;;23.80;49.50;;;;;;4934356;29;20412;-68
2021/08/29 05:53:52;;;;;;;0.30;0.20;;;23.80;49.50;;;;;;4933710;29;20392;-68
2021/08/29 05:56:18;;;;;;;0.20;0.10;;;23.80;49.60;;;;;;4934230;29;20404;-68
2021/08/29 05:58:43;;;;;;;0.40;0.20;;;23.80;49.50;;;;;;4934261;29;20800;-68
2021/08/29 06:01:13;;;;;;;0.53;0.20;;;23.80;49.50;;;;;;4934235;29;20759;-68
2021/08/29 06:03:39;;;;;;;0.25;0.10;;;23.80;49.50;;;;;;4934100;29;20895;-68
2021/08/29 06:06:05;;;;;;;0.30;0.10;;;23.80;49.50;;;;;;4933514;29;20494;-69
2021/08/29 06:08:30;;;;;;;0.30;0.10;;;23.80;49.60;;;;;;4934800;29;20751;-68
2021/08/29 06:10:57;;;;;;;0.60;0.10;;;23.80;49.50;;;;;;4937705;29;20483;-68
2021/08/29 06:13:23;;;;;;;0.50;0.20;;;23.70;49.40;;;;;;4937766;29;20898;-68
2021/08/29 06:15:48;;;;;;;1.23;0.20;;;23.80;49.50;;;;;;4937324;29;20427;-68
2021/08/29 06:18:14;;;;;;;0.83;0.20;;;23.80;49.50;;;;;;4936815;29;20796;-68
2021/08/29 06:20:41;;;;;;;2.05;0.30;;;23.80;49.40;;;;;;4937478;29;20399;-68
2021/08/29 06:23:07;;;;;;;1.50;0.20;;;23.70;49.20;;;;;;4937473;29;20399;-68
2021/08/29 06:25:32;;;;;;;1.75;0.30;;;23.80;49.30;;;;;;4937337;29;20778;-68
2021/08/29 06:27:58;;;;;;;1.07;0.30;;;23.80;49.40;;;;;;4936649;29;20810;-67
2021/08/29 06:30:24;;;;;;;1.30;0.30;;;23.70;49.20;;;;;;4937828;29;20403;-68
2021/08/29 06:32:50;;;;;;;1.80;0.30;;;23.70;49.40;;;;;;4937323;29;20406;-68
2021/08/29 06:35:15;;;;;;;2.17;0.20;;;23.70;49.50;;;;;;4936048;29;20974;-68
2021/08/29 06:37:41;;;;;;;2.25;0.50;;;23.80;49.40;;;;;;4937232;29;20475;-69
2021/08/29 06:40:08;;;;;;;1.30;0.30;;;23.80;49.30;;;;;;4937057;29;20439;-68
2021/08/29 06:42:33;;;;;;;1.63;0.30;;;23.80;49.30;;;;;;4937019;29;20490;-68
2021/08/29 06:44:59;;;;;;;1.07;0.30;;;23.80;49.40;;;;;;4937040;29;20506;-68
2021/08/29 06:47:25;;;;;;;1.13;0.30;;;23.80;49.40;;;;;;4937135;29;20399;-68
2021/08/29 06:49:50;;;;;;;1.00;0.22;;;23.80;49.50;;;;;;4936761;29;20396;-67
2021/08/29 06:52:16;;;;;;;1.00;0.20;;;23.80;49.50;;;;;;4936884;29;20756;-68
2021/08/29 06:54:42;;;;;;;1.02;0.20;;;23.80;49.50;;;;;;4937284;29;20396;-67
2021/08/29 06:57:07;;;;;;;0.70;0.20;;;23.80;49.90;;;;;;4936846;29;20729;-65
2021/08/29 06:59:33;;;;;;;2.85;0.38;;;24.00;50.20;;;;;;4937024;29;20980;-68
2021/08/29 07:01:59;;;;;;;1.90;0.30;;;24.00;50.00;;;;;;4936315;29;20431;-68
2021/08/29 07:04:24;;;;;;;1.38;0.20;;;24.10;50.00;;;;;;4936624;29;20423;-68
2021/08/29 07:06:50;;;;;;;2.07;0.30;;;24.00;49.90;;;;;;4936533;29;20487;-67
2021/08/29 07:09:15;;;;;;;2.40;0.30;;;23.90;50.00;;;;;;4936808;29;20442;-68
2021/08/29 07:11:41;;;;;;;1.53;0.20;;;23.90;50.20;;;;;;4936602;29;20808;-68
2021/08/29 07:14:07;;;;;;;1.80;0.30;;;23.90;50.20;;;;;;4936255;29;20402;-68
2021/08/29 07:16:32;;;;;;;1.40;0.30;;;23.90;50.40;;;;;;4936437;29;20458;-68
2021/08/29 07:18:58;;;;;;;0.63;0.20;;;23.90;50.40;;;;;;4936190;29;20387;-68
2021/08/29 07:21:24;;;;;;;0.77;0.30;;;23.80;50.50;;;;;;4936374;29;20431;-68
2021/08/29 07:23:50;;;;;;;2.07;0.20;;;23.80;50.60;;;;;;4936216;29;20392;-66
2021/08/29 07:26:16;;;;;;;1.30;0.30;;;23.80;50.50;;;;;;4936202;29;20483;-68
2021/08/29 07:28:43;;;;;;;3.28;0.20;;;23.80;50.60;;;;;;4935971;29;20369;-67
2021/08/29 07:31:09;;;;;;;1.88;0.40;;;23.80;50.70;;;;;;4936297;29;20399;-68
2021/08/29 07:33:35;;;;;;;1.42;0.25;;;23.80;50.70;;;;;;4936237;29;20446;-68
2021/08/29 07:36:00;;;;;;;2.50;0.30;;;23.70;50.70;;;;;;4935856;29;20482;-68
2021/08/29 07:38:26;;;;;;;1.13;0.20;;;23.70;50.80;;;;;;4935898;29;20435;-68
2021/08/29 07:40:52;;;;;;;0.95;0.30;;;23.80;50.80;;;;;;4936072;29;20398;-68
2021/08/29 07:43:18;;;;;;;2.50;0.20;;;23.70;50.90;;;;;;4936115;29;20398;-68
2021/08/29 07:45:43;;;;;;;1.20;0.30;;;23.70;50.80;;;;;;4935975;29;20441;-68
2021/08/29 07:48:09;;;;;;;0.70;0.20;;;23.70;50.90;;;;;;4935562;29;20391;-68
2021/08/29 07:50:35;;;;;;;1.63;0.22;;;23.70;51.00;;;;;;4935796;29;20400;-70
2021/08/29 07:53:01;;;;;;;0.43;0.20;;;23.70;50.90;;;;;;4935883;29;20748;-68
2021/08/29 07:55:26;;;;;;;0.85;0.30;;;23.70;50.90;;;;;;4936027;29;20494;-68
2021/08/29 07:57:52;;;;;;;1.77;0.30;;;23.70;50.90;;;;;;4935544;29;20432;-67
2021/08/29 08:00:18;;;;;;;3.00;0.22;;;23.70;50.90;;;;;;4937552;29;20443;-69
2021/08/29 08:02:44;;;;;;;1.38;0.22;;;23.80;51.20;;;;;;4935612;29;20399;-69
2021/08/29 08:05:10;;;;;;;0.90;0.20;;;23.80;51.10;;;;;;4935709;29;20911;-69
2021/08/29 08:07:36;;;;;;;1.43;0.20;;;23.90;50.90;;;;;;4935349;29;20809;-71
2021/08/29 08:10:03;;;;;;;1.73;0.28;;;23.90;50.80;;;;;;4931624;29;20412;-68
2021/08/29 08:12:29;;;;;;;2.55;0.30;;;23.90;50.60;;;;;;4926670;29;20947;-68
2021/08/29 08:14:55;;;;;;;3.50;0.60;;;24.00;50.30;;;;;;4926069;29;20400;-68
2021/08/29 08:17:21;;;;;;;4.55;0.40;;;24.00;49.90;;;;;;4926768;29;20415;-68
2021/08/29 08:19:46;;;;;;;4.30;0.70;;;23.90;49.70;;;;;;4926368;29;20522;-68
2021/08/29 08:22:12;;;;;;;2.55;0.47;;;23.90;49.80;;;;;;4925903;29;20998;-68
2021/08/29 08:24:38;;;;;;;2.80;0.40;;;23.90;49.90;;;;;;4926368;29;20427;-68
2021/08/29 08:27:04;;;;;;;2.57;0.33;;;23.90;49.80;;;;;;4926225;29;20411;-67
2021/08/29 08:29:31;;;;;;;0.93;0.40;;;23.90;49.70;;;;;;4925800;29;20424;-69
2021/08/29 08:31:57;;;;;;;2.25;0.40;;;23.90;49.70;;;;;;4924703;29;20459;-68
2021/08/29 08:34:23;;;;;;;2.10;0.30;;;23.90;49.60;;;;;;4925380;29;20414;-68
2021/08/29 08:36:52;;;;;;;1.48;0.30;;;24.00;49.70;;;;;;4925991;29;20408;-69
2021/08/29 08:39:17;;;;;;;1.10;0.30;;;24.00;49.50;;;;;;4925453;29;21008;-67
2021/08/29 08:41:43;;;;;;;3.47;0.50;;;24.00;49.50;;;;;;4925941;29;20399;-66
2021/08/29 08:44:09;;;;;;;1.40;0.30;;;24.00;49.40;;;;;;4925004;29;20443;-68
2021/08/29 08:46:37;;;;;;;2.00;0.25;;;24.00;49.40;;;;;;4925699;29;20872;-66
2021/08/29 08:49:03;;;;;;;1.85;0.40;;;23.90;49.30;;;;;;4925685;29;20399;-68
2021/08/29 08:51:30;;;;;;;3.50;0.30;;;24.00;49.40;;;;;;4925599;29;20402;-68
2021/08/29 08:54:00;;;;;;;2.90;0.30;;;23.90;49.40;;;;;;4925548;29;20391;-68
2021/08/29 08:56:25;;;;;;;1.30;0.20;;;23.90;49.40;;;;;;4925646;29;20745;-68
2021/08/29 08:58:58;;;;;;;0.80;0.20;;;24.00;49.40;;;;;;4925661;29;20411;-69
2021/08/29 09:01:26;;;;;;;2.40;0.30;;;24.00;49.30;;;;;;4925611;29;20459;-68
2021/08/29 09:03:53;;;;;;;0.88;0.30;;;24.00;49.30;;;;;;4925722;29;20403;-69
2021/08/29 09:06:19;;;;;;;0.82;0.30;;;24.00;49.30;;;;;;4924819;29;20479;-68
2021/08/29 09:08:46;;;;;;;0.57;0.25;;;24.00;49.30;;;;;;4924827;29;20399;-66
2021/08/29 09:11:15;;;;;;;0.55;0.20;;;24.00;49.30;;;;;;4920515;29;20422;-67
2021/08/29 09:13:47;;;;;;;0.90;0.30;;;24.00;49.30;;;;;;4921283;29;20400;-68
2021/08/29 09:16:14;;;;;;;0.60;0.20;;;24.00;49.30;;;;;;4921113;29;20466;-67
2021/08/29 09:18:54;;;;;;;0.30;0.20;;;24.00;49.30;;;;;;4923025;29;20396;-67
2021/08/29 09:21:25;;;;;;;0.43;0.20;;;24.00;49.40;;;;;;4922769;29;20391;-69
2021/08/29 09:23:53;;;;;;;0.95;0.30;;;24.00;49.40;;;;;;4925505;29;20415;-68
2021/08/29 09:26:21;;;;;;;1.35;0.30;;;24.10;49.30;;;;;;4924886;29;20431;-68
2021/08/29 09:28:49;;;;;;;0.65;0.20;;;24.10;49.30;;;;;;4925387;29;20903;-69
2021/08/29 09:31:18;;;;;;;0.90;0.30;;;24.10;49.30;;;;;;4925523;29;20960;-68
2021/08/29 09:34:00;;;;;;;0.98;0.20;;;24.10;49.30;;;;;;4925442;29;20471;-67
2021/08/29 09:36:32;;;;;;;2.00;0.20;;;24.10;49.40;;;;;;4925230;29;20412;-68
2021/08/29 09:39:13;;;;;;;0.40;0.20;;;24.10;49.40;;;;;;4925280;29;20399;-67
2021/08/29 09:41:40;;;;;;;0.63;0.30;;;24.10;49.30;;;;;;4923541;29;20400;-67
2021/08/29 09:44:13;;;;;;;1.50;0.20;;;24.10;49.30;;;;;;4926911;29;20590;-68
2021/08/29 09:46:55;;;;;;;1.45;0.20;;;24.20;49.40;;;;;;4928929;29;20423;-68
2021/08/29 09:49:26;;;;;;;0.80;0.20;;;24.20;49.40;;;;;;4928736;29;20435;-68
2021/08/29 09:51:52;;;;;;;1.60;0.20;;;24.20;49.20;;;;;;4928856;29;20388;-68
2021/08/29 09:54:31;;;;;;;1.30;0.20;;;24.20;49.10;;;;;;4928215;29;20430;-68
2021/08/29 09:56:59;;;;;;;0.93;0.20;;;24.20;48.90;;;;;;4928463;29;20856;-68
2021/08/29 09:59:46;;;;;;;1.25;0.20;;;24.20;48.90;;;;;;4928624;29;20979;-66
2021/08/29 10:02:28;;;;;;;0.95;0.13;;;24.30;49.00;;;;;;4928500;29;20399;-68
2021/08/29 10:05:20;;;;;;;1.20;0.20;;;24.30;49.00;;;;;;4928608;29;20435;-68
2021/08/29 10:08:07;;;;;;;0.40;0.10;;;24.30;49.00;;;;;;4928771;29;20655;-68
2021/08/29 10:10:36;;;;;;;0.80;0.30;;;24.30;49.00;;;;;;4928480;29;20431;-68
2021/08/29 10:13:03;;;;;;;0.40;0.20;;;24.20;48.90;;;;;;4928548;29;20430;-68
2021/08/29 10:15:31;;;;;;;0.32;0.13;;;24.20;49.00;;;;;;4928302;29;21572;-67
2021/08/29 10:18:00;;;;;;;0.93;0.20;;;24.20;49.00;;;;;;4928687;29;20453;-69
2021/08/29 10:20:29;;;;;;;0.77;0.20;;;24.20;48.90;;;;;;4928488;29;20403;-68
2021/08/29 10:22:57;;;;;;;0.50;0.20;;;24.30;48.90;;;;;;4928727;29;20403;-67
2021/08/29 10:25:24;;;;;;;0.30;0.10;;;24.30;48.90;;;;;;4927989;29;20438;-66
2021/08/29 10:28:12;;;;;;;0.40;0.20;;;24.30;49.00;;;;;;4928567;29;21101;-67
2021/08/29 10:30:40;;;;;;;0.80;0.20;;;24.20;48.90;;;;;;4928510;29;20400;-69
2021/08/29 10:33:11;;;;;;;0.38;0.10;;;24.20;48.90;;;;;;4928771;29;20398;-69
2021/08/29 10:35:38;;;;;;;0.32;0.13;;;24.30;48.90;;;;;;4928384;29;20400;-67
2021/08/29 10:38:05;;;;;;;0.30;0.10;;;24.30;48.90;;;;;;4928245;29;20478;-68
2021/08/29 10:40:32;;;;;;;0.73;0.20;;;24.30;48.80;;;;;;4928236;29;20421;-68
2021/08/29 10:42:58;;;;;;;0.25;0.10;;;24.20;48.80;;;;;;4943050;29;20423;-68
2021/08/29 10:45:25;;;;;;;0.55;0.10;;;24.30;48.80;;;;;;4928248;29;20438;-68
2021/08/29 10:47:53;;;;;;;0.20;0.10;;;24.30;48.90;;;;;;4927915;29;20450;-67
2021/08/29 10:50:20;;;;;;;0.82;0.20;;;24.20;48.80;;;;;;4927694;29;20506;-67
2021/08/29 10:52:46;;;;;;;0.50;0.20;;;24.30;48.80;;;;;;4928228;29;21019;-69
2021/08/29 10:55:14;;;;;;;1.27;0.20;;;24.20;48.80;;;;;;4926968;29;20407;-68
2021/08/29 10:57:42;;;;;;;2.20;0.40;;;24.30;48.80;;;;;;4927756;29;20919;-68
2021/08/29 11:00:17;;;;;;;4.97;0.40;;;24.20;48.70;;;;;;4927516;29;20423;-67
2021/08/29 11:02:48;;;;;;;1.50;0.38;;;24.20;49.10;;;;;;4927676;29;20450;-68
2021/08/29 11:05:36;;;;;;;4.25;0.60;;;24.20;49.10;;;;;;4927526;29;20419;-69
2021/08/29 11:08:24;;;;;;;5.25;0.50;;;24.20;49.30;;;;;;4919257;28;20884;-67
2021/08/29 11:10:51;;;;;;;4.47;0.55;;;24.20;49.60;;;;;;4927304;29;20536;-69
2021/08/29 11:13:32;;;;;;;3.93;0.53;;;24.20;49.60;;;;;;4927813;29;20522;-69
2021/08/29 11:16:12;;;;;;;3.40;0.30;;;24.20;49.60;;;;;;4927311;29;20757;-68
2021/08/29 11:19:03;;;;;;;3.60;0.40;;;24.20;49.70;;;;;;4927291;29;20430;-68
2021/08/29 11:21:54;;;;;;;3.05;0.28;;;24.20;49.80;;;;;;4927201;29;20507;-67
2021/08/29 11:25:00;;;;;;;3.95;0.40;;;24.20;49.80;;;;;;4926953;29;20434;-70
2021/08/29 11:27:45;;;;;;;2.50;0.30;;;24.30;49.80;;;;;;4886983;29;20419;-69
2021/08/29 11:30:15;;;;;;;2.92;0.30;;;24.30;49.60;;;;;;4886670;29;20415;-67
2021/08/29 11:32:46;;;;;;;2.53;0.30;;;24.30;49.70;;;;;;4912627;29;20876;-68
2021/08/29 11:35:14;;;;;;;1.92;0.20;;;24.30;49.60;;;;;;4927231;29;20809;-69
2021/08/29 11:37:42;;;;;;;5.22;0.43;;;24.30;50.20;;;;;;4926451;29;20844;-70
2021/08/29 11:40:10;;;;;;;3.35;0.40;;;24.30;49.80;;;;;;4925895;29;20403;-68
2021/08/29 11:42:37;;;;;;;1.80;0.30;;;24.40;49.80;;;;;;4926208;29;20900;-69
2021/08/29 11:45:09;;;;;;;1.80;0.20;;;24.40;49.80;;;;;;4940801;28;20800;-70
2021/08/29 11:47:38;;;;;;;2.97;0.52;;;24.40;49.80;;;;;;4925935;29;20407;-68
2021/08/29 11:50:06;;;;;;;2.10;0.30;;;24.40;49.90;;;;;;4940275;28;20411;-69
2021/08/29 11:52:36;;;;;;;0.98;0.15;;;24.40;49.90;;;;;;4926057;29;20434;-66
2021/08/29 11:55:13;;;;;;;0.77;0.28;;;24.40;49.60;;;;;;4940880;29;20422;-69
2021/08/29 11:57:52;;;;;;;2.63;0.35;;;24.40;49.60;;;;;;4926848;29;21612;-70
2021/08/29 12:00:20;;;;;;;0.90;0.30;;;24.50;49.90;;;;;;4926117;29;20805;-68
2021/08/29 12:02:46;;;;;;;1.67;0.30;;;24.40;49.30;;;;;;4926847;29;20407;-71
2021/08/29 12:05:14;;;;;;;2.10;0.40;;;24.40;49.60;;;;;;4926454;29;21004;-69
2021/08/29 12:07:53;;;;;;;1.63;0.40;;;24.40;49.40;;;;;;4934088;29;20439;-68
2021/08/29 12:10:19;;;;;;;2.90;0.65;;;24.40;49.20;;;;;;4925761;29;20432;-69
2021/08/29 12:12:46;;;;;;;2.95;0.73;;;24.40;49.40;;;;;;4926582;29;20822;-69
2021/08/29 12:15:14;;;;;;;2.60;0.50;;;24.40;49.50;;;;;;4926157;29;20400;-69
2021/08/29 12:17:40;;;;;;;1.35;0.45;;;24.30;49.60;;;;;;4926274;29;20918;-69
2021/08/29 12:20:10;;;;;;;3.13;0.93;;;24.40;49.60;;;;;;4925365;29;20904;-69
2021/08/29 12:22:37;;;;;;;3.45;1.30;;;24.40;49.60;;;;;;4926632;29;20689;-71
2021/08/29 12:25:03;;;;;;;5.45;1.58;;;24.40;49.40;;;;;;4925748;29;20420;-69
2021/08/29 12:27:30;;;;;;;3.33;1.00;;;24.40;49.50;;;;;;4926302;29;20404;-69
2021/08/29 12:30:00;;;;;;;3.72;1.38;;;24.40;49.40;;;;;;4911112;29;20411;-69
2021/08/29 12:32:34;;;;;;;3.70;1.77;;;24.40;49.60;;;;;;4925735;29;20847;-70
2021/08/29 12:35:10;;;;;;;4.07;1.83;;;24.30;50.30;;;;;;4926057;28;20403;-69
2021/08/29 12:37:44;;;;;;;6.32;2.60;;;24.30;50.00;;;;;;4926045;29;20438;-70
2021/08/29 12:40:16;;;;;;;4.00;2.40;;;24.30;50.30;;;;;;4925638;29;20479;-69
2021/08/29 12:42:44;;;;;;;3.90;3.00;;;24.30;50.30;;;;;;4924382;29;20423;-69
2021/08/29 12:45:18;;;;;;;5.05;2.88;;;24.30;50.70;;;;;;4925847;29;20424;-68
2021/08/29 12:47:47;;;;;;;7.07;2.90;;;24.30;51.10;;;;;;4925795;29;20403;-69
2021/08/29 12:50:17;;;;;;;6.88;3.00;;;24.30;51.20;;;;;;4925520;29;20399;-70
2021/08/29 12:52:49;;;;;;;4.07;2.33;;;24.30;52.00;;;;;;4925817;29;20399;-69
2021/08/29 12:55:23;;;;;;;4.05;2.30;;;24.30;51.30;;;;;;4925871;29;20403;-70